River Forest, IL (60305)

12:49 PM CDT on September 17, 2019 (GMT -0500)
Berkshire Heights | | Change Station

Elev 108 ft 41.90 °N, 87.79 °W | Updated 14 seconds ago

Partly Cloudy
Partly Cloudy
78.3 °F
Feels Like 81 °F
N
3
Wind Variable Wind from ESE
Gusts 4.0 mph

Today
High -- | Low -- °F
--% Chance of Precip.
Yesterday
High -- | Low -- °F
Precip. -- in
Pressure 30.17 in
Visibility 10.0 miles
Clouds Few 2200 ft
Few 20000 ft
Mostly Cloudy 25000 ft
Heat Index 81 °F
Dew Point 69 °F
Humidity 73%
Rainfall 0.00 in
Snow Depth Not available.
6:33 AM 6:57 PM
Waning Gibbous, 89% visible
METAR KORD 171651Z 10007KT 10SM FEW022 FEW200 BKN250 24/17 A3018 RMK AO2 SLP217 T02390172
Pressure 30.17 in
Visibility 10.0 miles
Clouds Few 2200 ft
Few 20000 ft
Mostly Cloudy 25000 ft
Heat Index 81 °F
Dew Point 69 °F
Humidity 73%
Rainfall 0.00 in
Snow Depth Not available.
6:33 AM 6:57 PM
Waning Gibbous, 89% visible
METAR KORD 171651Z 10007KT 10SM FEW022 FEW200 BKN250 24/17 A3018 RMK AO2 SLP217 T02390172

Get Your Daily Forecast Email!

Thanks for signing up!

Be on the lookout for a verification email in your inbox.

You'll start receiving severe weather alerts in your inbox..

×

10-Day Weather Forecast

Almanac

Astronomy

Sep. 17, 2019 Rise Set
Actual Time
Civil Twilight
Nautical Twilight
Astronomical Twilight
Moon
Length of Visible Light
Length of Day
Tomorrow will be .
, % of the Moon is Illuminated

Today's Extremes

State Highs State Lows

Community

WunderPhotos

Category 6

Welcome to Category 6. This is the collective home for Weather Underground's featured writeups by Dr. Jeff Masters (right), Bob Henson (left), Chris Burt, and other regular contributors.

Nearby

Air Quality

  Air Quality AQ Index Pollutant
Not available.

Snow Depth

Station Depth Elevation

Earthquake Activity

City Distance Mag. Time & Date
Minimum magnitude displayed is 2.5.

Coastal Water Temperatures

Place Temperature

Stations

Nearby Weather Stations

Station Location Temp. Windchill Dew Point Humidity Wind Precip. Elev Updated Type
                   

Watches & Warnings

There are currently no watches in effect.